Alhandra, Brazil
Current Conditions -  °F | °C
As of 5:00 PM on Tuesday 21 Oct 2014 (Local Time) from SBJP Reporting Station
Few Clouds Few Clouds  
Wind Chill: 81°   Ceiling: Unl
Heat Index: 82°   Visibility: 6mi
Dew Point: 64°   Wind: 10mph
Humidity: 58%   Direction: 110°ESE
Pressure: 29.91"   Gusts: NA
Location:  7.44°S, 34.91°W
Report Text: SBJP 212000Z 11009KT 070V130 9999 FEW030 27/18 Q1013
Loading
Personal Weather Stations






























Interactive Weather Map
Tropical Storm Tracking
New forecast layout! Learn more

10-Day Weather Forecast

Advertisements
Track Severe Weather on mobile